ΕΜΥ, Εθνική Μετεωρολογική Υπηρεσία - Δελτία Καιρού, Προγνώσεις

ΑΕΡΟΝΑΥΤΙΛΙΑ

GREEK AIRPORTS CODES

LGRX 300150Z 00000KT 9999 FEW025 SCT070 12/11 Q1018=

EUROPEAN AIRPORTS CODES

LFPO 300100Z 23010KT 9999 BKN015 BKN040 14/12 Q1022 NOSIG=